Time;durP1;ratioP1;P1;durP2;ratioP2;P2;SDS_P1;SDS_P2;PMS_P1;PMS_P2;Temp;Humidity;BMP_temperature;BMP_pressure;BME280_temperature;BME280_humidity;BME280_pressure;Samples;Min_cycle;Max_cycle;Signal;HPM_P1;HPM_P2
2022/07/23 00:01:14;;;;;;;8.60;4.53;;;;;;;15.37;100.00;101681.88;5254143;28;20704;-70
2022/07/23 00:03:46;;;;;;;7.30;4.00;;;;;;;15.35;100.00;101696.44;5260223;28;20389;-69
2022/07/23 00:06:17;;;;;;;6.88;4.18;;;;;;;15.45;100.00;101692.00;5256441;28;20037;-69
2022/07/23 00:08:49;;;;;;;6.95;4.05;;;;;;;15.32;100.00;101692.16;5259482;28;20067;-69
2022/07/23 00:11:21;;;;;;;7.78;4.38;;;;;;;15.38;100.00;101699.75;5262458;28;20461;-69
2022/07/23 00:13:54;;;;;;;6.97;3.85;;;;;;;15.32;100.00;101694.00;5259238;28;21293;-69
2022/07/23 00:16:26;;;;;;;5.80;3.88;;;;;;;15.29;100.00;101695.13;5260223;28;20086;-69
2022/07/23 00:18:57;;;;;;;6.90;4.47;;;;;;;15.22;100.00;101688.53;5262928;28;20032;-69
2022/07/23 00:21:28;;;;;;;6.55;4.40;;;;;;;15.37;100.00;101698.03;5263510;28;20386;-69
2022/07/23 00:23:59;;;;;;;8.68;4.60;;;;;;;15.28;100.00;101693.41;5266664;28;20028;-69
2022/07/23 00:26:31;;;;;;;8.02;4.82;;;;;;;15.24;100.00;101694.63;5265509;28;20489;-69
2022/07/23 00:29:02;;;;;;;6.97;4.72;;;;;;;15.23;100.00;101683.03;5264916;28;20029;-70
2022/07/23 00:31:34;;;;;;;5.63;4.05;;;;;;;15.02;100.00;101687.50;5257734;28;20115;-69
2022/07/23 00:34:05;;;;;;;5.45;4.53;;;;;;;15.03;100.00;101687.38;5269295;28;20343;-69
2022/07/23 00:36:37;;;;;;;6.43;4.70;;;;;;;15.01;100.00;101685.78;5263201;28;20529;-70
2022/07/23 00:39:08;;;;;;;6.97;5.05;;;;;;;14.92;100.00;101686.53;5270119;28;20132;-69
2022/07/23 00:41:39;;;;;;;7.68;4.60;;;;;;;14.93;100.00;101681.03;5257406;28;20545;-69
2022/07/23 00:44:29;;;;;;;7.45;4.60;;;;;;;14.88;100.00;101685.91;5262258;28;20023;-69
2022/07/23 00:47:00;;;;;;;7.07;5.20;;;;;;;14.87;100.00;101678.84;5260757;28;20033;-69
2022/07/23 00:49:32;;;;;;;8.32;4.80;;;;;;;14.80;100.00;101680.31;5258865;28;20113;-69
2022/07/23 00:52:03;;;;;;;7.93;4.90;;;;;;;14.76;100.00;101684.25;5268351;28;20033;-69
2022/07/23 00:54:35;;;;;;;6.70;4.82;;;;;;;14.68;100.00;101685.72;5259459;28;20105;-70
2022/07/23 00:57:06;;;;;;;9.20;5.10;;;;;;;14.70;100.00;101686.44;5263245;28;20052;-69
2022/07/23 00:59:40;;;;;;;9.77;4.97;;;;;;;14.65;100.00;101677.03;5259779;28;20036;-69
2022/07/23 01:02:12;;;;;;;6.75;5.35;;;;;;;14.64;100.00;101683.41;5253167;28;20040;-70
2022/07/23 01:04:43;;;;;;;7.50;5.25;;;;;;;14.56;100.00;101681.31;5262989;28;21428;-69
2022/07/23 01:07:15;;;;;;;7.00;4.85;;;;;;;14.53;100.00;101681.53;5267445;28;20085;-69
2022/07/23 01:09:46;;;;;;;7.78;5.50;;;;;;;14.63;100.00;101676.31;5260857;28;20035;-69
2022/07/23 01:12:18;;;;;;;7.18;4.90;;;;;;;14.49;100.00;101683.59;5263212;28;20036;-69
2022/07/23 01:14:59;;;;;;;8.20;5.60;;;;;;;14.44;100.00;101677.78;5271828;28;20040;-69
2022/07/23 01:17:30;;;;;;;7.38;5.18;;;;;;;14.52;100.00;101671.78;5262822;28;20020;-69
2022/07/23 01:20:02;;;;;;;7.28;5.30;;;;;;;14.40;100.00;101672.75;5263798;28;20159;-70
2022/07/23 01:22:34;;;;;;;7.68;5.53;;;;;;;14.31;100.00;101669.81;5262448;28;20036;-69
2022/07/23 01:25:06;;;;;;;8.57;5.57;;;;;;;14.40;100.00;101673.63;5259656;28;20021;-69
2022/07/23 01:27:37;;;;;;;10.07;5.57;;;;;;;14.26;100.00;101669.31;5260401;28;21507;-69
2022/07/23 01:30:09;;;;;;;7.20;5.53;;;;;;;14.19;100.00;101677.97;5258340;28;20028;-69
2022/07/23 01:32:40;;;;;;;7.53;5.63;;;;;;;14.24;100.00;101673.97;5261365;28;20033;-69
2022/07/23 01:35:12;;;;;;;8.40;6.05;;;;;;;14.24;100.00;101675.81;5258137;28;20028;-69
2022/07/23 01:37:43;;;;;;;8.88;5.78;;;;;;;14.22;100.00;101670.56;5261994;28;20042;-69
2022/07/23 01:40:14;;;;;;;8.43;6.03;;;;;;;14.22;100.00;101677.75;5278160;28;20029;-69
2022/07/23 01:42:46;;;;;;;8.10;5.65;;;;;;;14.22;100.00;101667.88;5270988;28;20020;-69
2022/07/23 01:45:17;;;;;;;8.43;6.10;;;;;;;14.15;100.00;101665.78;5262954;28;20037;-69
2022/07/23 01:47:48;;;;;;;9.90;6.10;;;;;;;14.02;100.00;101663.22;5269446;28;20385;-69
2022/07/23 01:50:20;;;;;;;9.07;6.18;;;;;;;14.04;100.00;101661.28;5271009;28;20025;-69
2022/07/23 01:52:51;;;;;;;9.75;6.30;;;;;;;14.00;100.00;101662.47;5262746;28;20538;-69
2022/07/23 01:55:22;;;;;;;10.10;6.60;;;;;;;13.87;100.00;101660.75;5263773;28;20106;-70
2022/07/23 01:57:54;;;;;;;8.30;6.78;;;;;;;14.00;100.00;101655.28;5259549;28;20593;-69
2022/07/23 02:00:25;;;;;;;8.43;6.65;;;;;;;13.92;100.00;101655.00;5268692;28;20127;-69
2022/07/23 02:02:58;;;;;;;9.52;6.70;;;;;;;13.81;100.00;101655.88;5268228;28;20029;-70
2022/07/23 02:05:31;;;;;;;8.85;7.13;;;;;;;13.79;100.00;101651.56;5270055;28;20375;-69
2022/07/23 02:08:02;;;;;;;8.90;7.72;;;;;;;13.92;100.00;101647.84;5268841;28;20542;-69
2022/07/23 02:10:34;;;;;;;10.20;7.32;;;;;;;13.87;100.00;101647.34;5257601;28;20074;-69
2022/07/23 02:13:05;;;;;;;9.77;7.03;;;;;;;13.80;100.00;101653.28;5259271;28;20024;-70
2022/07/23 02:15:36;;;;;;;10.00;7.70;;;;;;;13.75;100.00;101658.16;5268184;28;20069;-69
2022/07/23 02:18:08;;;;;;;12.25;7.68;;;;;;;13.68;100.00;101647.06;5270769;28;20093;-69
2022/07/23 02:20:39;;;;;;;10.20;7.40;;;;;;;13.68;100.00;101647.06;5261830;28;20056;-69
2022/07/23 02:23:10;;;;;;;8.50;7.05;;;;;;;13.62;100.00;101644.84;5261974;28;20864;-69
2022/07/23 02:25:42;;;;;;;10.07;8.00;;;;;;;13.58;100.00;101651.44;5261976;28;20040;-69
2022/07/23 02:28:13;;;;;;;11.63;7.38;;;;;;;13.60;100.00;101652.16;5259749;28;20269;-69
2022/07/23 02:30:45;;;;;;;9.70;7.53;;;;;;;13.57;100.00;101647.88;5256611;28;20028;-69
2022/07/23 02:33:16;;;;;;;11.68;7.25;;;;;;;13.52;100.00;101645.53;5262611;28;20033;-69
2022/07/23 02:35:47;;;;;;;9.88;7.78;;;;;;;13.49;100.00;101639.56;5262385;28;20482;-69
2022/07/23 02:38:19;;;;;;;9.27;7.28;;;;;;;13.50;100.00;101635.88;5261555;28;20501;-69
2022/07/23 02:40:50;;;;;;;10.85;7.47;;;;;;;13.39;100.00;101635.88;5261939;28;20469;-70
2022/07/23 02:43:21;;;;;;;9.38;7.22;;;;;;;13.40;100.00;101646.47;5263377;28;20032;-69
2022/07/23 02:45:52;;;;;;;9.18;7.38;;;;;;;13.35;100.00;101651.34;5261518;28;20484;-69
2022/07/23 02:48:24;;;;;;;10.27;7.28;;;;;;;13.42;100.00;101644.50;5260052;28;20482;-70
2022/07/23 02:50:56;;;;;;;9.63;7.47;;;;;;;13.33;100.00;101654.13;5256558;28;20466;-69
2022/07/23 02:53:27;;;;;;;10.18;7.57;;;;;;;13.31;100.00;101664.09;5257583;28;20036;-69
2022/07/23 02:55:58;;;;;;;9.27;7.90;;;;;;;13.33;100.00;101654.13;5259157;28;20493;-69
2022/07/23 02:58:30;;;;;;;9.52;7.95;;;;;;;13.31;100.00;101663.25;5264365;28;20055;-69
2022/07/23 03:01:01;;;;;;;10.25;8.18;;;;;;;13.28;100.00;101663.44;5259945;28;20425;-69
2022/07/23 03:03:32;;;;;;;12.13;7.65;;;;;;;13.24;100.00;101667.34;5259363;28;20021;-69
2022/07/23 03:06:04;;;;;;;10.32;7.85;;;;;;;13.18;100.00;101671.31;5260286;28;20086;-69
2022/07/23 03:08:35;;;;;;;10.52;8.50;;;;;;;13.28;100.00;101661.63;5254580;28;20020;-69
2022/07/23 03:11:13;;;;;;;9.68;8.68;;;;;;;13.14;100.00;101662.66;5264020;28;20428;-69
2022/07/23 03:13:44;;;;;;;13.48;9.57;;;;;;;13.10;100.00;101669.22;5269659;28;20093;-70
2022/07/23 03:16:15;;;;;;;10.48;8.80;;;;;;;13.08;100.00;101668.47;5259658;28;20471;-69
2022/07/23 03:18:47;;;;;;;12.55;9.15;;;;;;;13.05;100.00;101662.47;5254044;28;20033;-69
2022/07/23 03:21:18;;;;;;;10.27;9.20;;;;;;;13.03;100.00;101667.94;5261040;28;20345;-69
2022/07/23 03:23:49;;;;;;;12.02;9.57;;;;;;;13.02;100.00;101660.91;5260190;28;20044;-69
2022/07/23 03:26:25;;;;;;;11.75;9.63;;;;;;;12.95;100.00;101670.34;5254052;28;20047;-69
2022/07/23 03:28:56;;;;;;;11.32;9.27;;;;;;;12.94;100.00;101674.84;5266889;28;20015;-69
2022/07/23 03:31:27;;;;;;;13.90;9.85;;;;;;;13.05;100.00;101674.03;5254488;28;20027;-69
2022/07/23 03:33:58;;;;;;;13.13;10.07;;;;;;;12.94;100.00;101672.19;5253761;28;20039;-69
2022/07/23 03:36:30;;;;;;;12.60;10.27;;;;;;;13.04;100.00;101685.75;5257966;28;20025;-69
2022/07/23 03:39:01;;;;;;;11.27;9.23;;;;;;;13.03;100.00;101681.34;5263799;28;20533;-69
2022/07/23 03:41:32;;;;;;;14.40;10.57;;;;;;;13.08;100.00;101672.97;5253359;28;20020;-69
2022/07/23 03:44:04;;;;;;;14.30;10.00;;;;;;;12.94;100.00;101679.34;5258269;28;20020;-69
2022/07/23 03:46:35;;;;;;;12.63;9.68;;;;;;;12.90;100.00;101675.16;5258804;28;20119;-69
2022/07/23 03:49:06;;;;;;;13.65;10.88;;;;;;;12.95;100.00;101678.38;5257902;28;20052;-69
2022/07/23 03:51:37;;;;;;;12.10;10.38;;;;;;;12.92;100.00;101686.63;5252381;28;20060;-69
2022/07/23 03:54:09;;;;;;;14.05;11.25;;;;;;;13.00;100.00;101675.34;5261278;28;20036;-69
2022/07/23 03:56:40;;;;;;;13.80;11.20;;;;;;;12.93;100.00;101674.97;5262768;28;20055;-69
2022/07/23 03:59:11;;;;;;;16.25;11.60;;;;;;;12.85;100.00;101680.88;5258593;28;20036;-69
2022/07/23 04:01:43;;;;;;;16.35;11.93;;;;;;;12.98;100.00;101678.13;5254780;28;20025;-69
2022/07/23 04:04:14;;;;;;;15.40;12.35;;;;;;;12.90;100.00;101677.84;5254591;28;20054;-69
2022/07/23 04:06:45;;;;;;;15.95;11.82;;;;;;;12.87;100.00;101681.63;5256471;28;20032;-69
2022/07/23 04:09:17;;;;;;;14.27;10.55;;;;;;;12.88;100.00;101679.78;5256256;28;20112;-69
2022/07/23 04:11:48;;;;;;;15.82;11.85;;;;;;;13.01;100.00;101687.78;5250866;28;20025;-69
2022/07/23 04:14:19;;;;;;;14.23;12.38;;;;;;;12.95;100.00;101683.75;5256549;28;20053;-69
2022/07/23 04:16:50;;;;;;;14.50;12.50;;;;;;;12.86;100.00;101689.75;5258920;28;20116;-69
2022/07/23 04:19:22;;;;;;;14.85;11.55;;;;;;;12.89;100.00;101690.41;5261195;28;20044;-69
2022/07/23 04:21:53;;;;;;;15.98;12.20;;;;;;;12.85;100.00;101685.38;5263802;28;20033;-69
2022/07/23 04:24:24;;;;;;;14.40;11.90;;;;;;;12.80;100.00;101693.72;5259259;28;20017;-69
2022/07/23 04:26:56;;;;;;;15.55;11.90;;;;;;;12.82;100.00;101698.97;5262586;28;20025;-69
2022/07/23 04:29:27;;;;;;;18.33;12.93;;;;;;;12.91;100.00;101692.97;5259169;28;20043;-69
2022/07/23 04:31:58;;;;;;;15.32;13.05;;;;;;;12.86;100.00;101703.16;5262668;28;20108;-69
2022/07/23 04:34:30;;;;;;;17.65;13.45;;;;;;;12.86;100.00;101713.88;5259410;28;20565;-69
2022/07/23 04:37:01;;;;;;;19.67;13.70;;;;;;;12.88;100.00;101714.59;5262113;28;20092;-69
2022/07/23 04:39:33;;;;;;;15.68;12.90;;;;;;;12.97;100.00;101711.25;5262100;28;20033;-69
2022/07/23 04:42:04;;;;;;;19.23;14.20;;;;;;;12.89;100.00;101706.47;5263013;28;20024;-69
2022/07/23 04:44:35;;;;;;;17.30;12.88;;;;;;;12.92;100.00;101710.72;5255013;28;20033;-69
2022/07/23 04:47:07;;;;;;;19.75;13.80;;;;;;;12.94;100.00;101714.16;5254839;28;20028;-69
2022/07/23 04:49:38;;;;;;;16.55;13.43;;;;;;;12.95;100.00;101718.56;5254590;28;20024;-69
2022/07/23 04:52:09;;;;;;;20.75;13.20;;;;;;;12.93;100.00;101731.22;5252624;28;20029;-69
2022/07/23 04:54:41;;;;;;;17.13;14.07;;;;;;;12.97;100.00;101723.81;5260760;28;20033;-69
2022/07/23 04:57:12;;;;;;;18.42;13.80;;;;;;;12.97;100.00;101721.13;5255755;28;20048;-69
2022/07/23 04:59:43;;;;;;;21.15;14.38;;;;;;;12.97;100.00;101716.63;5255743;28;20488;-69
2022/07/23 05:02:15;;;;;;;16.67;13.60;;;;;;;13.00;100.00;101721.78;5263485;28;20495;-69
2022/07/23 05:04:46;;;;;;;19.52;13.85;;;;;;;13.04;100.00;101722.38;5261299;28;20136;-69
2022/07/23 05:07:17;;;;;;;18.95;13.27;;;;;;;13.05;100.00;101716.91;5265535;28;20497;-69
2022/07/23 05:09:48;;;;;;;18.40;13.50;;;;;;;13.08;100.00;101719.38;5259837;28;20040;-69
2022/07/23 05:12:20;;;;;;;20.42;14.00;;;;;;;13.10;100.00;101720.13;5263347;28;20024;-69
2022/07/23 05:14:52;;;;;;;20.95;13.30;;;;;;;13.12;100.00;101723.53;5263964;28;20043;-69
2022/07/23 05:17:24;;;;;;;14.80;13.07;;;;;;;13.16;100.00;101724.19;5264351;28;20032;-69
2022/07/23 05:19:55;;;;;;;19.05;13.77;;;;;;;13.18;100.00;101719.56;5262664;28;20031;-69
2022/07/23 05:22:27;;;;;;;17.00;13.07;;;;;;;13.26;100.00;101729.72;5265442;28;20426;-69
2022/07/23 05:24:58;;;;;;;16.38;14.07;;;;;;;13.28;100.00;101739.34;5263294;28;20507;-69
2022/07/23 05:27:30;;;;;;;18.88;13.60;;;;;;;13.36;100.00;101724.56;5262730;28;20021;-69
2022/07/23 05:30:01;;;;;;;19.63;13.52;;;;;;;13.41;100.00;101730.44;5263267;28;20032;-69
2022/07/23 05:32:32;;;;;;;18.92;13.95;;;;;;;13.46;100.00;101725.56;5257287;28;20032;-69
2022/07/23 05:35:05;;;;;;;16.92;13.63;;;;;;;13.53;100.00;101733.03;5262033;28;20348;-69
2022/07/23 05:37:37;;;;;;;17.40;13.32;;;;;;;13.61;100.00;101735.16;5262938;28;20673;-69
2022/07/23 05:40:10;;;;;;;15.80;13.23;;;;;;;13.63;100.00;101737.72;5262239;28;20021;-70
2022/07/23 05:42:42;;;;;;;18.60;13.20;;;;;;;13.70;100.00;101739.81;5261538;28;20108;-69
2022/07/23 05:45:13;;;;;;;20.63;14.45;;;;;;;13.81;100.00;101741.69;5261831;28;20103;-69
2022/07/23 05:47:49;;;;;;;15.65;13.30;;;;;;;13.83;100.00;101747.81;5258954;28;20371;-69
2022/07/23 05:50:20;;;;;;;15.50;13.85;;;;;;;13.91;100.00;101753.44;5259646;28;20029;-69
2022/07/23 05:52:52;;;;;;;14.52;12.32;;;;;;;13.98;100.00;101750.28;5258241;28;20509;-69
2022/07/23 05:55:23;;;;;;;17.02;11.82;;;;;;;14.09;100.00;101748.50;5260410;28;20508;-69
2022/07/23 05:57:58;;;;;;;16.30;11.68;;;;;;;14.16;100.00;101753.41;5265259;28;20402;-69
2022/07/23 06:00:30;;;;;;;16.42;12.57;;;;;;;14.21;100.00;101761.91;5263211;28;20514;-69
2022/07/23 06:03:01;;;;;;;14.30;11.60;;;;;;;14.29;100.00;101757.69;5261995;28;20111;-69
2022/07/23 06:05:32;;;;;;;14.07;11.45;;;;;;;14.40;100.00;101759.53;5265836;28;20126;-69
2022/07/23 06:08:04;;;;;;;15.32;11.65;;;;;;;14.48;100.00;101765.16;5260493;28;20055;-69
2022/07/23 06:10:35;;;;;;;14.45;11.43;;;;;;;14.51;100.00;101769.44;5261368;28;20021;-69
2022/07/23 06:13:06;;;;;;;12.65;10.18;;;;;;;14.61;100.00;101773.16;5260790;28;20151;-70
2022/07/23 06:15:38;;;;;;;15.45;10.93;;;;;;;14.66;100.00;101768.25;5259482;28;20033;-69
2022/07/23 06:18:09;;;;;;;13.13;10.07;;;;;;;14.76;100.00;101770.22;5260296;28;20029;-69
2022/07/23 06:20:40;;;;;;;13.73;9.90;;;;;;;14.84;100.00;101774.00;5261093;28;20024;-69
2022/07/23 06:23:12;;;;;;;13.07;10.93;;;;;;;14.88;100.00;101766.53;5263848;28;20062;-69
2022/07/23 06:25:43;;;;;;;18.02;11.25;;;;;;;14.90;100.00;101770.81;5262359;28;20072;-69
2022/07/23 06:28:15;;;;;;;13.30;10.90;;;;;;;15.04;100.00;101776.94;5261621;28;20096;-69
2022/07/23 06:30:46;;;;;;;12.07;9.40;;;;;;;15.00;100.00;101768.25;5258095;28;21270;-69
2022/07/23 06:33:17;;;;;;;10.63;7.80;;;;;;;15.13;100.00;101767.25;5262326;28;20121;-70
2022/07/23 06:35:49;;;;;;;9.90;7.93;;;;;;;15.19;100.00;101767.63;5258308;28;20020;-70
2022/07/23 06:38:20;;;;;;;9.60;7.90;;;;;;;15.35;100.00;101783.34;5261463;28;20086;-70
2022/07/23 06:40:51;;;;;;;10.32;7.30;;;;;;;15.46;100.00;101777.09;5263565;28;20021;-70
2022/07/23 06:43:22;;;;;;;8.95;7.32;;;;;;;15.58;100.00;101780.59;5263071;28;20028;-70
2022/07/23 06:45:54;;;;;;;9.43;7.28;;;;;;;15.68;100.00;101776.16;5260230;28;20032;-70
2022/07/23 06:48:25;;;;;;;9.88;7.10;;;;;;;15.76;100.00;101781.81;5259673;28;20119;-70
2022/07/23 06:50:56;;;;;;;9.40;7.38;;;;;;;15.85;100.00;101782.84;5259438;28;20033;-70
2022/07/23 06:53:28;;;;;;;10.25;7.20;;;;;;;15.90;100.00;101787.84;5267114;28;20024;-70
2022/07/23 06:55:59;;;;;;;12.20;7.20;;;;;;;16.00;100.00;101783.41;5267463;28;20050;-70
2022/07/23 06:58:31;;;;;;;9.15;7.47;;;;;;;16.01;100.00;101787.78;5265933;28;20052;-70
2022/07/23 07:01:02;;;;;;;9.48;7.07;;;;;;;16.14;100.00;101775.00;5261190;28;20055;-70
2022/07/23 07:03:33;;;;;;;9.63;6.55;;;;;;;16.25;100.00;101769.53;5267407;28;20069;-71
2022/07/23 07:06:05;;;;;;;12.45;7.20;;;;;;;16.36;100.00;101768.63;5268570;28;20074;-71
2022/07/23 07:08:36;;;;;;;8.45;6.05;;;;;;;16.49;100.00;101778.34;5263733;28;20063;-71
2022/07/23 07:11:08;;;;;;;8.00;5.90;;;;;;;16.51;100.00;101774.53;5261434;28;20414;-70
2022/07/23 07:13:39;;;;;;;8.60;5.70;;;;;;;16.60;100.00;101775.56;5257171;28;20070;-71
2022/07/23 07:16:11;;;;;;;7.80;5.70;;;;;;;16.71;100.00;101771.94;5266808;28;20028;-71
2022/07/23 07:18:42;;;;;;;7.18;5.20;;;;;;;16.80;98.85;101768.44;5271792;28;20032;-71
2022/07/23 07:21:14;;;;;;;7.32;5.53;;;;;;;16.94;100.00;101778.88;5276673;28;20020;-71
2022/07/23 07:23:45;;;;;;;8.52;5.75;;;;;;;16.99;97.64;101775.75;5265296;28;20028;-71
2022/07/23 07:26:17;;;;;;;8.10;5.38;;;;;;;17.13;98.40;101774.53;5267144;28;20086;-71
2022/07/23 07:28:48;;;;;;;6.72;4.82;;;;;;;17.20;97.42;101783.75;5266227;28;20040;-71
2022/07/23 07:31:19;;;;;;;7.93;4.90;;;;;;;17.28;94.80;101786.66;5271195;28;20037;-71
2022/07/23 07:33:51;;;;;;;8.55;4.70;;;;;;;17.35;91.89;101798.56;5266863;28;20024;-71
2022/07/23 07:36:23;;;;;;;7.03;5.03;;;;;;;17.46;92.24;101794.06;5270756;28;20056;-72
2022/07/23 07:38:54;;;;;;;8.88;4.88;;;;;;;17.48;92.41;101798.31;5259512;28;20024;-71
2022/07/23 07:41:26;;;;;;;6.95;4.68;;;;;;;17.53;90.26;101790.66;5272511;28;20123;-71
2022/07/23 07:43:57;;;;;;;6.75;4.70;;;;;;;17.78;92.62;101793.81;5265951;28;20032;-72
2022/07/23 07:46:28;;;;;;;8.40;4.80;;;;;;;17.78;93.61;101791.13;5261932;28;20111;-71
2022/07/23 07:49:00;;;;;;;8.38;5.15;;;;;;;17.76;90.79;101787.72;5264786;28;20024;-72
2022/07/23 07:51:32;;;;;;;8.52;4.75;;;;;;;17.85;93.41;101792.28;5258415;28;20032;-71
2022/07/23 07:54:03;;;;;;;6.53;4.10;;;;;;;18.02;89.09;101791.59;5269716;28;20072;-70
2022/07/23 07:56:35;;;;;;;6.25;4.40;;;;;;;18.05;92.33;101793.13;5266638;28;20478;-70
2022/07/23 07:59:06;;;;;;;7.07;4.55;;;;;;;18.10;89.81;101790.88;5265256;28;20098;-69
2022/07/23 08:01:37;;;;;;;6.22;4.43;;;;;;;18.26;86.79;101792.13;5267854;28;20037;-69
2022/07/23 08:04:09;;;;;;;6.32;4.70;;;;;;;18.31;88.30;101798.78;5254600;28;20025;-70
2022/07/23 08:06:40;;;;;;;8.13;4.60;;;;;;;18.23;85.94;101798.66;5269923;28;20021;-69
2022/07/23 08:09:11;;;;;;;8.77;4.60;;;;;;;18.51;86.31;101805.00;5261542;28;20028;-70
2022/07/23 08:11:43;;;;;;;7.00;4.63;;;;;;;18.52;87.38;101801.28;5272279;28;20023;-70
2022/07/23 08:14:14;;;;;;;6.95;4.63;;;;;;;18.63;84.24;101802.13;5261148;28;20039;-70
2022/07/23 08:16:46;;;;;;;8.10;4.38;;;;;;;18.70;84.19;101800.56;5263898;28;20029;-70
2022/07/23 08:19:17;;;;;;;7.85;4.88;;;;;;;18.76;83.87;101808.91;5264028;28;20057;-70
2022/07/23 08:21:48;;;;;;;6.80;4.43;;;;;;;18.81;81.98;101803.09;5259903;28;20125;-70
2022/07/23 08:24:19;;;;;;;5.93;3.60;;;;;;;18.93;81.36;101809.19;5267489;28;20048;-71
2022/07/23 08:26:51;;;;;;;6.38;3.90;;;;;;;18.93;78.76;101809.19;5274652;28;20086;-70
2022/07/23 08:29:22;;;;;;;6.85;3.97;;;;;;;19.17;79.89;101819.44;5268753;28;20059;-71
2022/07/23 08:31:53;;;;;;;7.80;4.03;;;;;;;19.31;80.65;101820.78;5279875;28;20051;-71
2022/07/23 08:34:24;;;;;;;6.25;4.80;;;;;;;19.30;78.58;101819.94;5256964;28;20036;-71
2022/07/23 08:36:56;;;;;;;6.07;4.13;;;;;;;19.29;76.86;101823.69;5259468;28;20029;-70
2022/07/23 08:39:27;;;;;;;7.05;4.60;;;;;;;19.43;77.56;101824.19;5260525;28;20441;-71
2022/07/23 08:41:58;;;;;;;7.65;4.53;;;;;;;19.52;77.93;101829.53;5270696;28;20394;-71
2022/07/23 08:44:30;;;;;;;7.55;4.68;;;;;;;19.49;75.21;101835.22;5266807;28;20017;-70
2022/07/23 08:47:01;;;;;;;7.63;4.32;;;;;;;19.39;75.33;101834.44;5258412;28;20046;-71
2022/07/23 08:49:33;;;;;;;6.05;4.32;;;;;;;19.31;77.80;101826.22;5265835;28;20166;-70
2022/07/23 08:52:05;;;;;;;8.95;4.35;;;;;;;19.42;77.31;101830.56;5266863;28;20033;-70
2022/07/23 08:54:37;;;;;;;5.57;3.80;;;;;;;19.52;78.98;101826.81;5269894;28;20489;-71
2022/07/23 08:57:08;;;;;;;7.57;4.50;;;;;;;19.56;79.34;101830.91;5265858;28;20052;-70
2022/07/23 08:59:41;;;;;;;6.93;4.20;;;;;;;19.61;78.75;101837.72;5269488;28;20410;-70
2022/07/23 09:02:12;;;;;;;7.10;4.97;;;;;;;19.57;77.52;101829.06;5269295;28;20448;-70
2022/07/23 09:04:44;;;;;;;6.75;4.70;;;;;;;19.72;78.87;101832.97;5261604;28;20111;-70
2022/07/23 09:07:15;;;;;;;6.68;4.55;;;;;;;19.61;77.07;101827.75;5266780;28;21122;-70
2022/07/23 09:09:46;;;;;;;6.95;4.45;;;;;;;19.76;77.97;101826.25;5257337;28;20039;-71
2022/07/23 09:12:17;;;;;;;7.20;4.18;;;;;;;19.64;75.06;101823.91;5266218;28;20037;-71
2022/07/23 09:14:49;;;;;;;6.43;4.22;;;;;;;19.84;75.13;101824.63;5271085;28;20063;-70
2022/07/23 09:17:21;;;;;;;5.40;3.85;;;;;;;19.98;75.51;101811.41;5267119;28;20101;-70
2022/07/23 09:20:07;;;;;;;7.72;4.20;;;;;;;20.12;77.28;101806.44;5272979;28;20398;-70
2022/07/23 09:22:47;;;;;;;6.93;4.07;;;;;;;20.11;74.84;101808.28;5270917;28;20050;-70
2022/07/23 09:25:19;;;;;;;7.32;4.30;;;;;;;20.23;75.02;101805.31;5260947;28;20029;-69
2022/07/23 09:27:56;;;;;;;6.57;4.80;;;;;;;20.32;74.14;101798.97;5263001;28;20344;-70
2022/07/23 09:30:30;;;;;;;7.05;3.97;;;;;;;20.44;77.87;101802.25;5267546;28;20051;-70
2022/07/23 09:33:09;;;;;;;7.15;3.88;;;;;;;20.65;76.24;101810.06;5271055;28;20021;-70
2022/07/23 09:35:51;;;;;;;6.70;4.10;;;;;;;20.76;73.09;101815.22;5276913;28;20032;-70
2022/07/23 09:38:24;;;;;;;7.28;4.00;;;;;;;20.79;75.00;101816.72;5257481;28;20126;-70
2022/07/23 09:41:11;;;;;;;5.93;4.40;;;;;;;20.82;76.53;101819.13;5266877;28;20027;-72
2022/07/23 09:43:43;;;;;;;7.00;4.50;;;;;;;20.84;72.66;101823.38;5259013;28;20036;-69
2022/07/23 09:46:26;;;;;;;7.28;4.65;;;;;;;20.87;73.72;101825.78;5261776;28;20032;-71
2022/07/23 09:48:58;;;;;;;6.40;3.85;;;;;;;20.74;70.83;101825.38;5270797;28;20206;-71
2022/07/23 09:54:21;;;;;;;5.05;3.50;;;;;;;20.98;71.81;101821.06;5261733;28;20035;-72
2022/07/23 09:56:53;;;;;;;6.55;3.30;;;;;;;21.17;70.35;101823.56;5264944;28;20049;-71
2022/07/23 09:59:28;;;;;;;5.80;3.40;;;;;;;21.23;67.65;101830.19;5273475;28;20470;-71
2022/07/23 10:02:00;;;;;;;5.97;3.20;;;;;;;21.08;66.86;101828.09;5270314;28;20107;-70
2022/07/23 10:04:32;;;;;;;5.63;2.67;;;;;;;21.37;68.84;101821.41;5266927;28;20382;-70
2022/07/23 10:07:10;;;;;;;5.75;2.67;;;;;;;21.42;69.03;101826.34;5260154;28;20029;-70
2022/07/23 10:09:42;;;;;;;5.10;3.58;;;;;;;21.39;68.11;101821.25;5268253;28;20496;-71
2022/07/23 10:15:08;;;;;;;5.13;3.40;;;;;;;21.66;66.46;101821.00;5260635;28;20498;-71
2022/07/23 10:17:40;;;;;;;5.65;3.10;;;;;;;21.86;66.91;101815.25;5264685;28;20023;-71
2022/07/23 10:20:11;;;;;;;5.80;2.63;;;;;;;22.04;67.68;101823.28;5262300;28;20036;-70
2022/07/23 10:22:54;;;;;;;6.25;3.10;;;;;;;21.76;66.21;101822.72;5260809;28;20048;-70
2022/07/23 10:25:46;;;;;;;7.75;3.53;;;;;;;21.80;66.55;101818.66;5251249;28;20025;-70
2022/07/23 10:28:50;;;;;;;3.85;2.53;;;;;;;21.87;66.83;101819.69;5271759;28;20694;-71
2022/07/23 10:31:49;;;;;;;6.22;3.30;;;;;;;21.74;66.74;101825.59;5263768;28;20031;-71
2022/07/23 10:34:43;;;;;;;4.78;3.15;;;;;;;21.70;65.32;101832.41;5258765;28;20490;-71
2022/07/23 10:37:43;;;;;;;7.20;2.80;;;;;;;21.87;67.05;101828.69;5246366;28;20133;-69
2022/07/23 10:40:17;;;;;;;6.47;2.47;;;;;;;21.99;65.05;101831.09;5245828;28;20040;-70
2022/07/23 10:42:51;;;;;;;4.32;2.53;;;;;;;22.17;64.09;101830.91;5258459;28;20364;-70
2022/07/23 10:45:36;;;;;;;6.05;2.53;;;;;;;22.25;65.66;101825.53;5264498;28;20115;-70
2022/07/23 10:48:13;;;;;;;4.38;2.65;;;;;;;22.19;65.29;101826.19;5258998;28;20043;-70
2022/07/23 10:51:07;;;;;;;4.03;2.50;;;;;;;22.06;63.58;101827.53;5265403;28;20028;-71
2022/07/23 10:53:50;;;;;;;6.13;2.70;;;;;;;22.10;63.69;101822.59;5259809;28;20121;-70
2022/07/23 10:56:56;;;;;;;5.03;2.67;;;;;;;21.98;62.70;101819.38;5264393;28;20866;-70
2022/07/23 10:59:27;;;;;;;4.90;2.67;;;;;;;22.09;63.47;101820.88;5260073;28;20789;-71
2022/07/23 11:02:22;;;;;;;4.40;2.50;;;;;;;22.28;65.12;101820.59;5259442;28;20120;-70
2022/07/23 11:04:54;;;;;;;4.05;2.65;;;;;;;22.34;64.35;101819.06;5274777;28;20103;-71
2022/07/23 11:07:25;;;;;;;4.00;2.40;;;;;;;22.32;63.30;101821.09;5261235;28;20101;-72
2022/07/23 11:09:57;;;;;;;6.18;3.05;;;;;;;22.58;63.55;101814.59;5260822;28;20031;-72
2022/07/23 11:12:28;;;;;;;4.78;2.85;;;;;;;22.58;63.14;101815.44;5267443;28;20088;-71
2022/07/23 11:15:08;;;;;;;5.22;3.17;;;;;;;22.59;62.48;101819.00;5267103;28;20089;-73
2022/07/23 11:17:42;;;;;;;5.82;2.70;;;;;;;22.71;62.74;101809.47;5264080;28;20036;-71
2022/07/23 11:20:17;;;;;;;3.67;2.25;;;;;;;22.58;63.69;101818.16;5257563;28;20036;-72
2022/07/23 11:22:51;;;;;;;4.63;2.75;;;;;;;22.31;61.66;101809.38;5272125;28;20043;-71
2022/07/23 11:25:22;;;;;;;4.88;2.70;;;;;;;22.09;60.92;101810.00;5264019;28;20079;-70
2022/07/23 11:27:55;;;;;;;5.53;2.30;;;;;;;22.12;62.81;101813.25;5265976;28;20372;-72
2022/07/23 11:30:26;;;;;;;4.43;2.22;;;;;;;22.23;61.91;101803.91;5272216;28;20294;-71
2022/07/23 11:33:07;;;;;;;4.80;2.10;;;;;;;22.31;63.39;101809.38;5261369;28;20081;-70
2022/07/23 11:35:40;;;;;;;4.53;2.40;;;;;;;22.48;61.70;101807.47;5259897;28;20378;-70
2022/07/23 11:38:21;;;;;;;5.20;2.78;;;;;;;22.65;60.86;101807.47;5258833;28;20569;-70
2022/07/23 11:40:56;;;;;;;3.10;2.10;;;;;;;22.87;61.66;101803.97;5261903;28;20032;-70
2022/07/23 11:43:27;;;;;;;4.53;2.20;;;;;;;22.63;58.87;101806.78;5263160;28;20033;-70
2022/07/23 11:46:00;;;;;;;4.25;2.10;;;;;;;22.59;58.47;101809.00;5261728;28;20036;-70